Flight Briefing for CPX242

Departure Arrival
Huntsville International Airport (KHSV)
Click to view FAA NOTAMS
Chicago/Rockford International Airport (KRFD)
Click to view FAA NOTAMS
Departure Time Arrival Time
N/A N/A
Aircraft Distance
B767-300BDSF 466nm
Departure METAR Arrival METAR
KHSV 212153Z 17011KT 10SM SCT055 32/18 A2989 RMK AO2 SLP113 T03170183 KRFD 212154Z 08020G32KT 10SM OVC060 13/04 A2995 RMK AO2 PK WND 07032/2150 PRESFR SLP145 T01280044
Suggested Route
RQZ BNA J73 GUIDO JOT


View recent IFR Routes data
Notes



Charts and Procedures

Charts for KHSV
No chart available
Charts for KRFD
No chart available

Windy.com Weather Map